Airfield :
LOGIN :

Register | Disclaimer

   EN    FR    IT 

 










Legend :    VFR   Marginal VFR   IFR   Intensive IFR   Very Intensive IFR
Visi :
Ceiling :
>= 8 km
>= 3000ft
5 to 8 km
1000 to 3000 ft
1500m to 5 km
500 to 1000 ft
800 to 1500m
200 to 500 ft
< 800m
< 200 ft
Symbols :   Thunderstorms  Fog  Heavy snow  Heavy precipitations  Wind > 20 kt
SIGMETs :     Misc.  Thunderstorms  Icing  Turbulence  Mountain Waves  Volcanic Ashes







- Airport Elevation : 1058 ft
- IATA code : SCN


EDDR - Saarbrücken

CURRENT METAR :
  • 190820Z 30008KT 260V320 9999 BKN020 18/13 Q1026 NOSIG

EXPIRED METARs :
  • 190750Z 29006KT 240V350 9999 SCT018 18/13 Q1026 NOSIG
  • 190720Z 29007KT 240V320 9999 SCT015 18/14 Q1025 NOSIG
  • 190650Z 29004KT 250V320 9999 SCT012 18/14 Q1026 TEMPO BKN012
  • 190620Z 30005KT 250V330 9999 FEW009 17/14 Q1025 NOSIG
  • 190550Z 26004KT 9999 MIFG FEW007 16/14 Q1025 NOSIG
  • 190520Z 26003KT 230V300 9999 MIFG FEW007 15/14 Q1025 NOSIG

TAF TAF EDDR
Valid from the 19 at 06:00 until the 20 at 06:00 UTC


190500Z 1906/2006 23006KT 9999 SCT035
BECMG 1915/1917 34004KT
PROB30
TEMPO 2002/2006 1500 BCFG
No reported NOTAMs for that airfield.



MET'MAP, your aeronautical weather chart ! - Copyright ORBIFLY December 2007 - Disclaimer

ORBIFLY MET'MAP TEAM :

Programming & Development : Alexandra Zaïnal
Concept & Development : Baudouin d'Aumeries
Co-Development & Prog : Marc-Olivier Méhu
Technical & hardware support : Manuel Goepfert

Contact : metmap@orbifly.com




SOURCES & CREDITS :

   NOAA